Aviation Digital Data Service (ADDS)

Output produced by METARs form (1153 UTC 18 June 2019)
found at http://www.aviationweather.gov/metar/data/
 
Forecast for: NTAA (TAHITI-FAAA POLY, WS)
Text: TAF NTAA 180500Z 1806/1912 VRB03KT 9999 FEW023 SCT050 BKN300
Forecast period: 0600 UTC 18 June 2019 to 1200 UTC 19 June 2019
Forecast type: FROM: standard forecast or significant change
Winds: variable direction winds at 3 MPH (3 knots; 1.5 m/s)
Visibility: 6 or more miles 10+ km)
Ceiling: 30000 feet AGL
Clouds: few clouds at 2300 feet AGL
scattered clouds at 5000 feet AGL
broken clouds at 30000 feet AGL
Weather: no significant weather forecast for this period
Text: TEMPO 1819/1904 06015KT
Forecast period: 1900 UTC 18 June 2019 to 0400 UTC 19 June 2019
Forecast type: TEMPORARY: The following changes expected for less than half the time period
Winds: from the ENE (60 degrees) at 17 MPH (15 knots; 7.7 m/s)
Visibility: missing
Ceiling: unknown
Clouds: missing
Weather: no significant weather forecast for this period